Rechercher aéroport 
image banner adimage banner adimage banner ad
image banner ad

4CL1 - Lyon

Situé à Rancho Santa Margarita, United States

ICAO - 4CL1, IATA -

Données fournies par Airmate  

Information générale

Coordonnées: N33°36'46" W117°35'29"
Élévation : 898 feet MSL.
Variation magnétique : 14° East
Voir autres Aéroports à California

Données opérationnelles

Special qualification required
Heure actuelle UTC:
Heure actuelle locale:
METAR: KSNA 260853Z AUTO 23003KT 10SM OVC013 19/15 A3001 RMK AO2 SLP162 T01940150 53002 $
TAF: KSNA 260520Z 2606/2706 VRB04KT P6SM OVC010 FM261500 VRB04KT P6SM OVC014 FM261900 22009KT P6SM SCT015 SCT150 FM270300 22005KT P6SM SCT015 SCT120
Voir NOTAMs / SUP AIP / TFR affectant cet aéroport [VIEW]
Fréquences de communication: [VIEW]

Pistes:

Coordonnées de l'aéroport

Adresse: Rancho Santa Margarita United States

Vue satellite de 4CL1